Time;durP1;ratioP1;P1;durP2;ratioP2;P2;SDS_P1;SDS_P2;PMS_P1;PMS_P2;Temp;Humidity;BMP_temperature;BMP_pressure;BME280_temperature;BME280_humidity;BME280_pressure;Samples;Min_cycle;Max_cycle;Signal;HPM_P1;HPM_P2
2021/03/19 00:01:11;;;;;;;10.65;4.88;;;-1.50;99.90;;;;;;5013186;28;20026;-74
2021/03/19 00:03:37;;;;;;;12.23;6.47;;;-1.60;99.90;;;;;;5012713;28;20040;-74
2021/03/19 00:06:03;;;;;;;12.93;4.78;;;-1.60;99.90;;;;;;5011394;28;20034;-74
2021/03/19 00:08:29;;;;;;;13.20;5.45;;;-1.60;99.90;;;;;;5012031;28;20108;-75
2021/03/19 00:10:54;;;;;;;10.50;5.10;;;-1.70;99.90;;;;;;5012956;28;20108;-75
2021/03/19 00:13:20;;;;;;;13.45;5.15;;;-1.70;99.90;;;;;;5028181;28;20026;-74
2021/03/19 00:15:46;;;;;;;14.80;5.82;;;-1.80;99.90;;;;;;5011670;28;20149;-74
2021/03/19 00:18:11;;;;;;;9.00;5.18;;;-1.80;99.90;;;;;;5012970;28;20037;-74
2021/03/19 00:20:41;;;;;;;10.90;5.43;;;-1.90;99.90;;;;;;5012860;28;20026;-74
2021/03/19 00:23:07;;;;;;;9.52;4.78;;;-1.90;99.90;;;;;;5012540;28;20099;-74
2021/03/19 00:25:34;;;;;;;8.00;5.07;;;-1.90;99.90;;;;;;5012018;28;20041;-74
2021/03/19 00:28:00;;;;;;;10.55;5.82;;;-2.00;99.90;;;;;;5012898;28;20030;-74
2021/03/19 00:30:26;;;;;;;8.48;4.82;;;-2.00;99.90;;;;;;5012832;28;20033;-74
2021/03/19 00:32:51;;;;;;;21.27;7.13;;;-2.00;99.90;;;;;;5012779;28;20018;-74
2021/03/19 00:35:17;;;;;;;23.15;10.65;;;-2.00;99.90;;;;;;5011243;28;20026;-74
2021/03/19 00:37:43;;;;;;;31.30;11.20;;;-2.00;99.90;;;;;;5012463;28;20022;-74
2021/03/19 00:40:11;;;;;;;19.73;10.32;;;-2.10;99.90;;;;;;5012642;28;20100;-74
2021/03/19 00:42:38;;;;;;;21.50;9.63;;;-2.00;99.90;;;;;;5012655;28;20495;-74
2021/03/19 00:45:05;;;;;;;21.92;9.13;;;-2.10;99.90;;;;;;5011822;28;20125;-74
2021/03/19 00:47:31;;;;;;;15.02;8.05;;;-2.10;99.90;;;;;;5027561;28;20026;-74
2021/03/19 00:49:57;;;;;;;14.48;7.50;;;-2.10;99.90;;;;;;5012323;28;20123;-74
2021/03/19 00:52:22;;;;;;;18.25;7.90;;;-2.20;99.90;;;;;;5012479;28;20065;-74
2021/03/19 00:54:48;;;;;;;19.35;7.65;;;-2.20;99.90;;;;;;5010341;28;20034;-74
2021/03/19 00:57:14;;;;;;;17.77;7.35;;;-2.10;99.90;;;;;;5011053;28;20637;-74
2021/03/19 00:59:39;;;;;;;15.02;6.78;;;-2.20;99.90;;;;;;5012214;28;20482;-74
2021/03/19 01:02:05;;;;;;;16.40;6.80;;;-2.00;99.90;;;;;;5012251;28;20026;-74
2021/03/19 01:04:30;;;;;;;11.07;6.55;;;-1.90;99.90;;;;;;5011043;28;20109;-74
2021/03/19 01:06:56;;;;;;;12.35;6.03;;;-2.00;99.90;;;;;;5012223;28;20474;-74
2021/03/19 01:09:21;;;;;;;8.25;5.43;;;-2.10;99.90;;;;;;5011789;28;20034;-74
2021/03/19 01:11:47;;;;;;;12.32;5.15;;;-2.20;99.90;;;;;;5010817;28;20065;-74
2021/03/19 01:14:15;;;;;;;9.13;4.75;;;-2.20;99.90;;;;;;5011012;28;20032;-74
2021/03/19 01:16:42;;;;;;;17.58;5.93;;;-2.30;99.90;;;;;;5011992;28;20029;-74
2021/03/19 01:19:08;;;;;;;18.70;6.32;;;-2.40;99.90;;;;;;5011962;28;20043;-74
2021/03/19 01:21:34;;;;;;;13.02;6.88;;;-2.40;99.90;;;;;;5012075;28;20399;-74
2021/03/19 01:24:00;;;;;;;11.20;5.50;;;-2.50;99.90;;;;;;5009232;28;20045;-74
2021/03/19 01:26:25;;;;;;;13.25;6.80;;;-2.40;99.90;;;;;;5011554;28;20026;-74
2021/03/19 01:28:51;;;;;;;18.48;6.72;;;-2.50;99.90;;;;;;5011532;28;20021;-74
2021/03/19 01:31:17;;;;;;;11.95;6.65;;;-2.50;99.90;;;;;;5011690;28;20414;-74
2021/03/19 01:33:42;;;;;;;14.40;7.18;;;-2.50;99.90;;;;;;5010970;28;20084;-74
2021/03/19 01:36:08;;;;;;;22.20;6.43;;;-2.60;99.90;;;;;;5026903;28;20022;-74
2021/03/19 01:38:35;;;;;;;10.90;6.50;;;-2.60;99.90;;;;;;5011571;28;20134;-74
2021/03/19 01:41:02;;;;;;;12.15;6.47;;;-2.60;99.90;;;;;;5011782;28;20026;-74
2021/03/19 01:43:50;;;;;;;14.77;6.45;;;-2.60;99.90;;;;;;5011359;28;20040;-74
2021/03/19 01:46:52;;;;;;;9.23;5.55;;;-2.60;99.90;;;;;;5011751;28;20041;-74
2021/03/19 01:49:56;;;;;;;20.40;6.82;;;-2.70;99.90;;;;;;5011460;28;20029;-74
2021/03/19 01:52:59;;;;;;;13.07;8.18;;;-2.60;99.90;;;;;;5011603;28;20022;-74
2021/03/19 01:56:01;;;;;;;10.93;6.63;;;-2.40;99.90;;;;;;4991414;28;20145;-74
2021/03/19 01:59:04;;;;;;;18.05;6.40;;;-2.30;99.90;;;;;;4991203;28;20030;-74
2021/03/19 02:02:07;;;;;;;14.25;6.72;;;-2.30;99.90;;;;;;4990699;28;20034;-74
2021/03/19 02:05:10;;;;;;;11.23;6.78;;;-2.40;99.90;;;;;;5003834;28;20502;-74
2021/03/19 02:08:13;;;;;;;14.40;6.55;;;-2.40;99.90;;;;;;5011573;28;20034;-74
2021/03/19 02:11:16;;;;;;;13.82;6.13;;;-2.40;99.90;;;;;;4991908;28;20034;-74
2021/03/19 02:14:19;;;;;;;16.13;6.97;;;-2.50;99.90;;;;;;4992551;28;20104;-74
2021/03/19 02:17:22;;;;;;;11.45;6.82;;;-2.60;99.90;;;;;;5010149;28;20108;-74
2021/03/19 02:20:25;;;;;;;13.20;6.70;;;-2.60;99.90;;;;;;5011111;28;20026;-74
2021/03/19 02:23:28;;;;;;;13.15;6.32;;;-2.70;99.90;;;;;;5009880;28;20026;-74
2021/03/19 02:26:31;;;;;;;10.85;6.10;;;-2.70;99.90;;;;;;5010465;28;20042;-73
2021/03/19 02:29:34;;;;;;;10.52;5.97;;;-2.70;99.90;;;;;;5011143;28;20034;-74
2021/03/19 02:32:32;;;;;;;20.05;7.82;;;-2.60;99.90;;;;;;5011191;28;20056;-74
2021/03/19 02:35:04;;;;;;;14.13;6.82;;;-2.30;99.90;;;;;;5005713;28;20049;-74
2021/03/19 02:37:33;;;;;;;29.75;8.07;;;-2.20;99.90;;;;;;5011392;28;20023;-74
2021/03/19 02:39:59;;;;;;;15.63;7.22;;;-2.00;99.90;;;;;;5013973;28;20058;-74
2021/03/19 02:42:31;;;;;;;17.98;8.05;;;-1.90;99.90;;;;;;5030015;28;20018;-74
2021/03/19 02:44:58;;;;;;;16.45;7.70;;;-1.90;99.90;;;;;;5013738;28;20405;-74
2021/03/19 02:47:24;;;;;;;18.33;7.63;;;-1.90;99.90;;;;;;5014824;28;20049;-74
2021/03/19 02:49:50;;;;;;;15.30;7.10;;;-2.00;99.90;;;;;;5014678;28;20030;-73
2021/03/19 02:52:17;;;;;;;12.60;7.45;;;-2.10;99.90;;;;;;5014745;28;20033;-74
2021/03/19 02:54:43;;;;;;;12.02;5.97;;;-2.30;99.90;;;;;;5013345;28;20026;-74
2021/03/19 02:57:08;;;;;;;11.00;6.13;;;-2.40;99.90;;;;;;5013263;28;20088;-74
2021/03/19 02:59:34;;;;;;;14.55;6.47;;;-2.50;99.90;;;;;;5014339;28;20030;-74
2021/03/19 03:01:59;;;;;;;12.00;6.75;;;-2.60;99.90;;;;;;5014605;28;20394;-74
2021/03/19 03:04:26;;;;;;;13.48;6.65;;;-2.70;99.90;;;;;;5013403;28;20478;-74
2021/03/19 03:06:54;;;;;;;14.68;6.78;;;-2.70;99.90;;;;;;5014286;28;20032;-74
2021/03/19 03:09:27;;;;;;;12.02;5.95;;;-2.80;99.90;;;;;;5014057;28;20040;-74
2021/03/19 03:11:53;;;;;;;14.13;6.43;;;-2.80;99.90;;;;;;5014373;28;20121;-74
2021/03/19 03:14:22;;;;;;;13.07;6.53;;;-2.90;99.90;;;;;;5012965;28;20034;-74
2021/03/19 03:16:48;;;;;;;17.42;6.50;;;-2.90;99.90;;;;;;5014243;28;20030;-74
2021/03/19 03:19:18;;;;;;;10.27;6.13;;;-2.90;99.90;;;;;;5009520;28;20058;-74
2021/03/19 03:21:44;;;;;;;12.05;5.53;;;-2.90;99.90;;;;;;4994466;28;20015;-74
2021/03/19 03:24:12;;;;;;;10.10;6.25;;;-3.00;99.90;;;;;;5020871;28;20057;-74
2021/03/19 03:26:38;;;;;;;12.43;7.00;;;-3.00;99.90;;;;;;5029348;28;20030;-74
2021/03/19 03:29:05;;;;;;;11.98;6.25;;;-3.00;99.90;;;;;;5013488;28;20036;-74
2021/03/19 03:31:30;;;;;;;15.13;6.45;;;-3.00;99.90;;;;;;5013749;28;20105;-74
2021/03/19 03:33:56;;;;;;;17.60;7.25;;;-3.00;99.90;;;;;;5013152;28;20123;-74
2021/03/19 03:36:22;;;;;;;13.30;7.53;;;-2.80;99.90;;;;;;5013528;28;20022;-74
2021/03/19 03:38:48;;;;;;;15.85;7.28;;;-2.70;99.90;;;;;;5013548;28;20048;-74
2021/03/19 03:41:17;;;;;;;15.85;7.47;;;-2.60;99.90;;;;;;5013778;28;20030;-74
2021/03/19 03:43:43;;;;;;;19.45;7.93;;;-2.50;99.90;;;;;;5011583;28;20824;-74
2021/03/19 03:46:14;;;;;;;14.55;7.03;;;-2.50;99.90;;;;;;5013048;28;20053;-74
2021/03/19 03:48:39;;;;;;;9.00;5.97;;;-2.60;99.90;;;;;;5011742;28;20660;-74
2021/03/19 03:51:07;;;;;;;12.27;6.55;;;-2.60;99.90;;;;;;5012638;28;20029;-74
2021/03/19 03:53:34;;;;;;;11.15;6.22;;;-2.70;99.90;;;;;;5028390;28;20057;-74
2021/03/19 03:56:01;;;;;;;13.02;6.60;;;-2.70;99.90;;;;;;5013022;28;20044;-74
2021/03/19 03:58:26;;;;;;;15.20;6.05;;;-2.70;99.90;;;;;;5013183;28;20457;-74
2021/03/19 04:00:52;;;;;;;11.68;6.43;;;-2.80;99.90;;;;;;5013473;28;20026;-74
2021/03/19 04:03:18;;;;;;;12.98;6.07;;;-2.70;99.90;;;;;;5013433;28;20036;-74
2021/03/19 04:05:46;;;;;;;13.98;6.43;;;-2.50;99.90;;;;;;5012567;28;20105;-74
2021/03/19 04:08:17;;;;;;;13.63;7.00;;;-2.30;99.90;;;;;;5028181;28;20116;-74
2021/03/19 04:10:43;;;;;;;14.05;5.63;;;-2.30;99.90;;;;;;5013175;28;20044;-74
2021/03/19 04:13:11;;;;;;;16.33;6.97;;;-2.30;99.90;;;;;;5028447;28;20053;-74
2021/03/19 04:15:37;;;;;;;19.33;6.35;;;-2.30;99.90;;;;;;5012384;28;20554;-74
2021/03/19 04:18:06;;;;;;;13.60;6.30;;;-2.20;99.90;;;;;;5012853;28;20022;-74
2021/03/19 04:20:32;;;;;;;15.63;6.55;;;-2.10;99.90;;;;;;4993182;28;20030;-74
2021/03/19 04:22:58;;;;;;;11.90;6.70;;;-2.10;99.90;;;;;;4995926;28;20420;-74
2021/03/19 04:25:25;;;;;;;12.52;5.90;;;-2.00;99.90;;;;;;5012269;28;20160;-74
2021/03/19 04:27:54;;;;;;;13.77;6.22;;;-2.00;99.90;;;;;;5012955;28;20029;-74
2021/03/19 04:30:30;;;;;;;9.88;5.63;;;-2.00;99.90;;;;;;5012468;28;20490;-74
2021/03/19 04:32:58;;;;;;;11.98;5.75;;;-2.10;99.90;;;;;;5011702;28;20021;-74
2021/03/19 04:35:25;;;;;;;12.45;6.30;;;-2.10;99.90;;;;;;5010820;28;20026;-74
2021/03/19 04:37:53;;;;;;;9.68;4.97;;;-2.20;99.90;;;;;;5027454;28;20494;-74
2021/03/19 04:40:19;;;;;;;10.27;5.22;;;-2.30;99.90;;;;;;5012410;28;20544;-74
2021/03/19 04:42:46;;;;;;;9.00;5.25;;;-2.40;99.90;;;;;;5012672;28;20079;-74
2021/03/19 04:45:13;;;;;;;8.95;5.20;;;-2.50;99.90;;;;;;5011894;28;20030;-74
2021/03/19 04:47:39;;;;;;;15.15;5.55;;;-2.60;99.90;;;;;;5027857;28;20122;-74
2021/03/19 04:50:07;;;;;;;12.27;6.05;;;-2.70;99.90;;;;;;5012262;28;20033;-74
2021/03/19 04:52:32;;;;;;;10.82;5.97;;;-2.60;99.90;;;;;;5012544;28;20018;-74
2021/03/19 04:55:00;;;;;;;9.65;5.97;;;-2.60;99.90;;;;;;5011456;28;20036;-74
2021/03/19 04:57:26;;;;;;;10.80;5.07;;;-2.50;99.90;;;;;;5012393;28;20093;-74
2021/03/19 04:59:52;;;;;;;12.77;5.65;;;-2.50;99.90;;;;;;5012069;28;20117;-74
2021/03/19 05:02:28;;;;;;;9.07;5.60;;;-2.40;99.90;;;;;;5026375;28;20033;-74
2021/03/19 05:04:54;;;;;;;14.25;5.85;;;-2.40;99.90;;;;;;5011636;28;20045;-74
2021/03/19 05:07:19;;;;;;;11.45;5.97;;;-2.40;99.90;;;;;;5027583;28;20490;-74
2021/03/19 05:09:45;;;;;;;11.13;5.55;;;-2.30;99.90;;;;;;5011414;28;20482;-74
2021/03/19 05:12:11;;;;;;;17.58;6.07;;;-2.20;99.90;;;;;;5012065;28;20062;-74
2021/03/19 05:14:36;;;;;;;11.02;5.57;;;-2.20;99.90;;;;;;5011222;28;20061;-74
2021/03/19 05:17:02;;;;;;;11.40;6.03;;;-2.10;99.90;;;;;;5012191;28;20029;-74
2021/03/19 05:19:27;;;;;;;11.10;5.10;;;-2.00;99.90;;;;;;5011777;28;20026;-74
2021/03/19 05:21:53;;;;;;;19.63;7.20;;;-2.00;99.90;;;;;;5027313;28;20026;-74
2021/03/19 05:24:19;;;;;;;14.20;5.90;;;-1.90;99.90;;;;;;5009603;28;20117;-74
2021/03/19 05:26:45;;;;;;;14.00;6.13;;;-1.80;99.90;;;;;;5011944;28;20029;-74
2021/03/19 05:29:12;;;;;;;11.05;6.05;;;-1.70;99.90;;;;;;5011393;28;20030;-74
2021/03/19 05:31:40;;;;;;;12.98;5.40;;;-1.70;99.90;;;;;;5012145;28;20041;-74
2021/03/19 05:34:05;;;;;;;13.05;5.40;;;-1.60;99.90;;;;;;5011263;28;20026;-74
2021/03/19 05:36:33;;;;;;;16.08;6.03;;;-1.60;99.90;;;;;;5011915;28;20510;-74
2021/03/19 05:38:59;;;;;;;12.75;6.53;;;-1.50;99.90;;;;;;5011427;28;20022;-74
2021/03/19 05:41:28;;;;;;;9.93;6.63;;;-1.50;99.90;;;;;;5011211;28;20547;-74
2021/03/19 05:44:19;;;;;;;11.30;6.38;;;-1.40;99.90;;;;;;5011135;28;20026;-74
2021/03/19 05:46:49;;;;;;;8.45;5.40;;;-1.30;99.90;;;;;;5010623;28;20033;-74
2021/03/19 05:49:25;;;;;;;8.43;5.03;;;-1.30;99.90;;;;;;5026745;28;20103;-74
2021/03/19 05:52:12;;;;;;;9.30;4.63;;;-1.20;99.90;;;;;;5026918;28;20129;-74
2021/03/19 05:54:41;;;;;;;10.27;5.07;;;-1.20;99.90;;;;;;5025771;28;20116;-74
2021/03/19 05:57:07;;;;;;;7.95;4.63;;;-1.10;99.90;;;;;;5011706;28;20032;-74
2021/03/19 05:59:38;;;;;;;9.50;4.72;;;-1.00;99.90;;;;;;5011493;28;20067;-74
2021/03/19 06:02:24;;;;;;;10.80;4.78;;;-1.00;99.90;;;;;;5011687;28;20451;-74
2021/03/19 06:05:11;;;;;;;9.77;4.88;;;-0.90;99.90;;;;;;5010834;28;20084;-74
2021/03/19 06:07:47;;;;;;;7.28;4.45;;;-0.90;99.90;;;;;;5011723;28;20018;-74
2021/03/19 06:10:18;;;;;;;8.90;4.38;;;-0.80;99.90;;;;;;4990772;28;20041;-74
2021/03/19 06:12:47;;;;;;;8.25;4.80;;;-0.80;99.90;;;;;;4991914;28;20022;-74
2021/03/19 06:15:33;;;;;;;23.42;12.65;;;-0.80;99.90;;;;;;4993553;28;20109;-74
2021/03/19 06:18:01;;;;;;;58.42;31.25;;;-0.70;99.90;;;;;;4995824;28;20014;-74
2021/03/19 06:20:28;;;;;;;38.47;19.35;;;-0.60;99.90;;;;;;4995669;28;20040;-74
2021/03/19 06:23:13;;;;;;;106.45;42.70;;;-0.60;99.90;;;;;;4997236;28;20505;-74
2021/03/19 06:25:59;;;;;;;85.10;31.65;;;-0.50;99.90;;;;;;5014489;28;20030;-74
2021/03/19 06:28:33;;;;;;;241.30;80.25;;;-0.50;99.90;;;;;;5015055;28;20030;-74
2021/03/19 06:31:17;;;;;;;226.23;85.55;;;-0.40;99.90;;;;;;4995402;28;20026;-74
2021/03/19 06:33:43;;;;;;;65.95;29.98;;;-0.30;99.90;;;;;;4994754;28;20489;-74
2021/03/19 06:36:20;;;;;;;38.92;19.65;;;-0.30;99.90;;;;;;4995445;28;20376;-74
2021/03/19 06:39:03;;;;;;;97.05;54.38;;;-0.20;99.90;;;;;;5003996;28;20033;-74
2021/03/19 06:41:37;;;;;;;80.17;43.07;;;-0.10;99.90;;;;;;5014767;28;20030;-74
2021/03/19 06:44:23;;;;;;;182.82;90.47;;;-0.10;99.90;;;;;;5014176;28;20156;-74
2021/03/19 06:46:53;;;;;;;74.47;39.38;;;-0.10;99.90;;;;;;5014855;28;20490;-74
2021/03/19 06:49:20;;;;;;;95.63;54.17;;;-0.10;99.90;;;;;;5014407;28;20026;-74
2021/03/19 06:51:50;;;;;;;49.95;29.00;;;0.00;99.90;;;;;;5030030;28;20022;-74
2021/03/19 06:54:45;;;;;;;24.88;14.80;;;0.00;99.90;;;;;;5013312;28;20113;-74
2021/03/19 06:57:13;;;;;;;40.60;18.02;;;0.10;99.90;;;;;;5014700;28;20037;-74
2021/03/19 06:59:50;;;;;;;37.47;17.55;;;0.20;99.90;;;;;;5014414;28;20029;-74
2021/03/19 07:02:53;;;;;;;17.98;8.32;;;0.20;99.90;;;;;;5014637;28;20112;-74
2021/03/19 07:05:39;;;;;;;19.58;9.20;;;0.30;99.90;;;;;;5013777;28;20409;-74
2021/03/19 07:08:32;;;;;;;12.30;5.45;;;0.40;99.90;;;;;;5014132;28;20116;-74
2021/03/19 07:11:30;;;;;;;10.55;5.63;;;0.50;99.90;;;;;;5014409;28;20034;-74
2021/03/19 07:14:22;;;;;;;10.57;5.28;;;0.50;99.90;;;;;;5013502;28;20533;-74
2021/03/19 07:17:19;;;;;;;9.80;4.47;;;0.60;99.90;;;;;;5014403;28;20029;-74
2021/03/19 07:20:05;;;;;;;12.90;5.43;;;0.70;99.90;;;;;;5014026;28;20080;-74
2021/03/19 07:22:56;;;;;;;6.88;3.92;;;0.70;99.90;;;;;;5014317;28;20045;-74
2021/03/19 07:25:36;;;;;;;11.98;4.22;;;0.80;99.90;;;;;;4992736;28;20034;-74
2021/03/19 07:28:25;;;;;;;6.22;3.58;;;0.90;99.90;;;;;;4994570;28;20488;-74
2021/03/19 07:31:18;;;;;;;7.30;3.65;;;0.90;99.90;;;;;;4994159;28;20387;-75
2021/03/19 07:34:13;;;;;;;6.65;3.83;;;1.00;99.90;;;;;;4992595;28;20045;-74
2021/03/19 07:36:48;;;;;;;6.90;3.65;;;1.20;99.90;;;;;;4994439;28;20022;-74
2021/03/19 07:39:42;;;;;;;6.10;3.17;;;1.30;99.90;;;;;;5006593;28;20505;-74
2021/03/19 07:42:30;;;;;;;7.72;3.88;;;1.50;99.90;;;;;;4994363;28;20045;-74
2021/03/19 07:45:20;;;;;;;6.38;3.25;;;1.50;99.90;;;;;;4973780;28;20035;-74
2021/03/19 07:48:04;;;;;;;6.30;3.42;;;1.60;99.90;;;;;;4994285;28;20512;-75
2021/03/19 07:50:32;;;;;;;;;;;1.80;99.90;;;;;;4994441;28;20043;-75
2021/03/19 07:53:15;;;;;;;13.93;4.22;;;1.90;99.90;;;;;;4995958;28;20016;-75
2021/03/19 07:55:59;;;;;;;9.90;4.05;;;2.10;99.90;;;;;;5012975;28;20101;-75
2021/03/19 07:59:10;;;;;;;10.35;3.53;;;2.30;99.90;;;;;;5013508;28;20022;-75
2021/03/19 08:01:47;;;;;;;6.90;3.40;;;2.40;99.90;;;;;;4980260;28;20042;-75
2021/03/19 08:04:41;;;;;;;5.97;3.60;;;2.60;99.90;;;;;;5012459;28;20018;-74
2021/03/19 08:07:28;;;;;;;7.90;3.70;;;2.60;99.90;;;;;;5013239;28;20114;-75
2021/03/19 08:10:06;;;;;;;8.45;4.10;;;2.70;99.90;;;;;;5028199;28;20422;-74
2021/03/19 08:12:42;;;;;;;7.13;3.17;;;2.80;99.90;;;;;;5013255;28;20072;-74
2021/03/19 08:25:19;;;;;;;6.90;3.53;;;2.70;99.90;;;;;;5012435;28;20029;-74
2021/03/19 08:28:03;;;;;;;25.55;4.95;;;2.90;99.90;;;;;;5027859;28;20490;-75
2021/03/19 08:31:02;;;;;;;12.93;4.85;;;3.00;99.90;;;;;;5012747;28;20029;-74
2021/03/19 08:34:10;;;;;;;7.82;3.45;;;3.10;99.90;;;;;;5012740;28;20371;-74
2021/03/19 08:36:47;;;;;;;11.55;4.18;;;3.40;99.90;;;;;;5011868;28;20026;-74
2021/03/19 08:39:15;;;;;;;6.40;3.92;;;3.70;99.90;;;;;;5012794;28;20026;-74
2021/03/19 08:41:48;;;;;;;10.13;3.63;;;4.10;99.90;;;;;;5010793;28;20088;-74
2021/03/19 08:44:17;;;;;;;4.95;3.83;;;4.40;99.90;;;;;;5006604;28;20025;-74
2021/03/19 08:47:08;;;;;;;9.05;3.75;;;4.50;99.90;;;;;;5006387;28;20042;-74
2021/03/19 08:49:45;;;;;;;7.78;3.75;;;4.40;99.90;;;;;;5010308;28;20061;-74
2021/03/19 08:52:31;;;;;;;9.30;3.65;;;4.40;99.90;;;;;;5012443;28;20060;-74
2021/03/19 08:55:17;;;;;;;6.88;3.63;;;4.50;99.90;;;;;;5011844;28;20105;-74
2021/03/19 08:57:55;;;;;;;5.63;3.42;;;4.90;99.90;;;;;;5012108;28;20052;-74
2021/03/19 09:00:20;;;;;;;8.90;3.08;;;5.20;99.90;;;;;;5027498;28;20026;-74
2021/03/19 09:02:52;;;;;;;5.53;3.40;;;5.20;99.90;;;;;;5012353;28;20493;-74
2021/03/19 09:05:23;;;;;;;5.72;3.28;;;5.30;99.90;;;;;;5011527;28;20451;-74
2021/03/19 09:08:10;;;;;;;6.97;4.03;;;5.10;99.90;;;;;;5011770;28;20034;-74
2021/03/19 09:10:36;;;;;;;6.22;3.65;;;5.10;99.90;;;;;;5012053;28;20498;-74
2021/03/19 09:13:07;;;;;;;4.93;2.70;;;5.10;99.90;;;;;;5011944;28;20034;-74
2021/03/19 09:15:38;;;;;;;6.60;3.22;;;4.90;99.90;;;;;;5011283;28;20188;-75
2021/03/19 09:18:43;;;;;;;9.93;4.00;;;4.90;99.90;;;;;;5026834;28;20486;-74
2021/03/19 09:21:28;;;;;;;9.80;3.55;;;5.30;99.90;;;;;;5012123;28;20080;-74
2021/03/19 09:24:23;;;;;;;8.77;3.28;;;5.90;99.90;;;;;;5010070;28;20030;-74
2021/03/19 09:26:54;;;;;;;9.30;3.20;;;6.80;99.90;;;;;;5011531;28;20025;-74
2021/03/19 09:29:28;;;;;;;6.45;3.70;;;7.10;99.90;;;;;;5011896;28;20109;-74
2021/03/19 09:32:00;;;;;;;10.40;3.72;;;7.10;99.90;;;;;;5011959;28;20026;-74
2021/03/19 09:34:45;;;;;;;12.15;3.75;;;6.80;99.90;;;;;;5026200;28;20026;-74
2021/03/19 09:37:35;;;;;;;7.38;3.35;;;6.60;99.90;;;;;;5011338;28;20067;-74
2021/03/19 09:40:30;;;;;;;9.13;3.10;;;6.40;99.90;;;;;;5011843;28;20033;-74
2021/03/19 09:42:56;;;;;;;6.35;3.22;;;6.50;99.90;;;;;;5011147;28;20038;-74
2021/03/19 09:45:25;;;;;;;13.80;3.50;;;7.00;99.90;;;;;;5026218;28;20030;-74
2021/03/19 09:48:00;;;;;;;9.18;2.65;;;7.50;99.90;;;;;;5011954;28;20029;-74
2021/03/19 09:50:31;;;;;;;12.88;4.07;;;8.20;99.90;;;;;;5017969;28;20100;-74
2021/03/19 09:53:00;;;;;;;4.68;2.13;;;8.70;99.90;;;;;;5018194;28;20030;-74
2021/03/19 09:55:41;;;;;;;5.13;2.30;;;8.50;99.90;;;;;;5017546;28;20478;-74
2021/03/19 09:58:28;;;;;;;4.55;2.25;;;8.10;99.90;;;;;;5017969;28;20105;-74
2021/03/19 10:01:12;;;;;;;5.70;1.92;;;7.90;99.90;;;;;;5016819;28;20399;-74
2021/03/19 10:03:50;;;;;;;9.80;2.22;;;7.40;99.90;;;;;;5017949;28;20468;-73
2021/03/19 10:06:21;;;;;;;3.65;1.63;;;7.20;99.90;;;;;;5017918;28;20026;-74
2021/03/19 10:08:47;;;;;;;2.53;1.40;;;7.00;99.90;;;;;;5017889;28;20026;-74
2021/03/19 10:11:15;;;;;;;2.08;0.90;;;7.10;99.90;;;;;;5016835;28;20144;-74
2021/03/19 10:13:40;;;;;;;3.70;1.10;;;7.20;99.90;;;;;;5032270;28;20109;-74
2021/03/19 10:16:07;;;;;;;2.47;0.95;;;7.20;99.90;;;;;;5017913;28;20102;-74
2021/03/19 10:18:37;;;;;;;2.33;0.90;;;7.00;99.90;;;;;;5017638;28;20457;-74
2021/03/19 10:21:18;;;;;;;2.65;1.00;;;6.90;99.90;;;;;;5018104;28;20030;-73
2021/03/19 10:23:58;;;;;;;1.55;0.93;;;6.90;99.90;;;;;;5017411;28;20053;-74
2021/03/19 10:26:31;;;;;;;8.38;1.55;;;6.80;99.90;;;;;;5017743;28;20060;-74
2021/03/19 10:29:13;;;;;;;2.15;0.98;;;6.60;99.90;;;;;;4997034;28;20438;-74
2021/03/19 10:31:47;;;;;;;4.38;1.50;;;6.40;99.90;;;;;;4998298;28;20031;-74
2021/03/19 10:34:27;;;;;;;8.70;1.45;;;6.20;99.90;;;;;;4997414;28;20042;-74
2021/03/19 10:37:00;;;;;;;3.17;1.55;;;6.00;99.90;;;;;;4999257;28;20022;-73
2021/03/19 10:39:32;;;;;;;3.03;1.30;;;5.90;99.90;;;;;;5017179;28;20100;-74
2021/03/19 10:42:20;;;;;;;4.28;1.10;;;5.90;99.90;;;;;;5017702;28;20030;-73
2021/03/19 10:45:11;;;;;;;2.25;1.02;;;5.70;99.90;;;;;;5017094;28;20505;-73
2021/03/19 10:47:51;;;;;;;5.65;1.27;;;5.50;99.90;;;;;;5017398;28;20498;-74
2021/03/19 10:50:35;;;;;;;6.90;1.30;;;5.40;99.90;;;;;;5017052;28;20029;-73
2021/03/19 10:53:26;;;;;;;2.97;1.58;;;5.20;99.90;;;;;;5032932;28;20026;-73
2021/03/19 10:55:52;;;;;;;3.75;1.73;;;5.20;99.90;;;;;;5015716;28;20025;-74
2021/03/19 10:58:30;;;;;;;10.80;1.52;;;5.20;99.90;;;;;;5017233;28;20037;-73
2021/03/19 11:00:55;;;;;;;5.72;2.03;;;5.40;99.90;;;;;;5013920;28;20030;-74
2021/03/19 11:03:44;;;;;;;2.90;1.67;;;5.60;99.90;;;;;;5014389;28;20052;-73
2021/03/19 11:06:13;;;;;;;26.52;1.90;;;5.70;99.90;;;;;;5014570;28;20673;-73
2021/03/19 11:08:39;;;;;;;14.10;2.03;;;5.70;99.90;;;;;;5013512;28;20477;-73
2021/03/19 11:11:04;;;;;;;5.05;2.58;;;5.80;99.90;;;;;;5014268;28;20022;-74
2021/03/19 11:13:31;;;;;;;6.53;1.75;;;6.00;99.90;;;;;;5011927;28;20053;-74
2021/03/19 11:16:00;;;;;;;7.55;2.45;;;6.10;99.90;;;;;;5028943;28;20022;-74
2021/03/19 11:18:38;;;;;;;4.68;2.42;;;5.90;99.90;;;;;;5013827;28;20029;-73
2021/03/19 11:21:29;;;;;;;5.55;2.10;;;5.90;99.90;;;;;;5029180;28;20025;-73
2021/03/19 11:24:03;;;;;;;9.73;2.28;;;6.00;99.90;;;;;;5013528;28;20390;-74
2021/03/19 11:26:33;;;;;;;5.88;2.33;;;6.10;99.90;;;;;;5013665;28;20081;-73
2021/03/19 11:29:14;;;;;;;3.58;1.60;;;6.10;99.90;;;;;;5013510;28;20157;-74
2021/03/19 11:31:58;;;;;;;5.35;1.77;;;6.20;99.90;;;;;;5013160;28;20113;-74
2021/03/19 11:34:34;;;;;;;3.60;1.65;;;6.10;99.90;;;;;;5012892;28;20076;-74
2021/03/19 11:37:18;;;;;;;2.42;1.50;;;6.00;99.90;;;;;;5013974;28;20076;-74
2021/03/19 11:39:50;;;;;;;3.45;1.70;;;6.00;99.90;;;;;;5012543;28;20030;-73
2021/03/19 11:42:18;;;;;;;3.67;1.85;;;6.00;99.90;;;;;;5013616;28;20390;-74
2021/03/19 11:44:46;;;;;;;6.75;1.88;;;6.00;99.90;;;;;;5028192;28;20390;-74
2021/03/19 11:47:14;;;;;;;3.10;1.67;;;6.20;99.90;;;;;;5013740;28;20018;-74
2021/03/19 11:49:40;;;;;;;5.53;2.03;;;6.20;99.90;;;;;;5013585;28;20022;-74
2021/03/19 11:52:06;;;;;;;4.20;1.95;;;6.30;99.90;;;;;;5028632;28;20022;-74
2021/03/19 11:54:31;;;;;;;6.30;2.17;;;6.40;99.90;;;;;;5011249;28;20022;-74
2021/03/19 11:56:57;;;;;;;7.13;2.55;;;6.40;99.90;;;;;;5013242;28;20078;-75
2021/03/19 11:59:22;;;;;;;2.30;1.60;;;6.50;99.90;;;;;;5013572;28;20034;-74
2021/03/19 12:01:48;;;;;;;4.88;1.75;;;6.90;99.90;;;;;;5012979;28;20083;-74
2021/03/19 12:04:19;;;;;;;4.72;2.30;;;8.00;99.90;;;;;;5012676;28;20107;-74
2021/03/19 12:06:46;;;;;;;5.28;2.00;;;8.70;99.90;;;;;;5028591;28;20030;-74
2021/03/19 12:09:11;;;;;;;2.13;1.30;;;8.50;99.90;;;;;;5013294;28;20076;-74
2021/03/19 12:11:40;;;;;;;4.15;1.13;;;7.70;99.90;;;;;;5011768;28;20119;-74
2021/03/19 12:14:15;;;;;;;2.78;1.20;;;7.50;99.90;;;;;;5012423;28;20115;-74
2021/03/19 12:16:40;;;;;;;3.72;1.40;;;7.70;99.90;;;;;;5013158;28;20022;-74
2021/03/19 12:19:06;;;;;;;1.60;1.20;;;7.60;99.90;;;;;;5013093;28;20037;-73
2021/03/19 12:38:49;;;;;;;3.92;1.17;;;6.20;99.90;;;;;;5013039;28;20033;-74
2021/03/19 12:41:14;;;;;;;3.38;1.20;;;6.40;99.90;;;;;;5012786;28;20044;-74
2021/03/19 12:43:41;;;;;;;5.22;1.48;;;6.30;99.90;;;;;;5011869;28;20418;-74
2021/03/19 12:46:07;;;;;;;1.35;1.13;;;6.20;99.90;;;;;;5012496;28;20479;-74
2021/03/19 12:48:33;;;;;;;1.83;1.02;;;6.10;99.90;;;;;;5012424;28;20080;-74
2021/03/19 12:50:58;;;;;;;4.20;0.90;;;5.80;99.90;;;;;;5012467;28;20068;-74
2021/03/19 12:53:24;;;;;;;2.00;1.17;;;5.70;99.90;;;;;;5012343;28;20056;-74
2021/03/19 12:55:51;;;;;;;1.23;1.13;;;5.60;99.90;;;;;;5003369;28;20030;-73
2021/03/19 12:58:19;;;;;;;6.70;1.08;;;5.60;99.90;;;;;;5006062;28;20026;-73
2021/03/19 13:00:45;;;;;;;3.17;1.20;;;5.50;99.90;;;;;;5009212;28;20125;-74
2021/03/19 13:03:11;;;;;;;10.05;1.20;;;5.30;99.90;;;;;;5024205;28;20026;-73
2021/03/19 13:05:37;;;;;;;3.70;1.23;;;5.30;99.90;;;;;;5008501;28;20049;-73
2021/03/19 13:08:03;;;;;;;1.88;1.25;;;5.30;99.90;;;;;;5008759;28;20026;-75
2021/03/19 13:10:31;;;;;;;1.83;1.10;;;5.20;99.90;;;;;;5009373;28;20497;-74
2021/03/19 13:12:58;;;;;;;4.95;1.30;;;5.10;99.90;;;;;;5008778;28;20036;-75
2021/03/19 13:15:27;;;;;;;4.45;1.60;;;5.00;99.90;;;;;;5008326;28;20037;-75
2021/03/19 13:17:52;;;;;;;1.90;1.25;;;5.00;99.90;;;;;;5007613;28;20026;-75
2021/03/19 13:20:20;;;;;;;2.88;1.40;;;5.00;99.90;;;;;;5014074;28;20049;-75
2021/03/19 13:22:46;;;;;;;5.50;1.50;;;5.10;99.90;;;;;;5008299;28;20501;-75
2021/03/19 13:25:16;;;;;;;3.03;1.45;;;5.20;99.90;;;;;;5007791;28;20025;-75
2021/03/19 13:27:41;;;;;;;3.03;1.20;;;6.50;99.90;;;;;;5007982;28;20117;-75
2021/03/19 13:30:12;;;;;;;5.07;1.40;;;7.40;99.90;;;;;;5008501;28;20112;-75
2021/03/19 13:32:38;;;;;;;3.28;1.40;;;8.50;99.90;;;;;;5008614;28;20029;-74
2021/03/19 13:35:06;;;;;;;2.38;1.13;;;9.80;99.90;;;;;;5008227;28;20037;-75
2021/03/19 13:37:32;;;;;;;0.80;0.80;;;10.70;99.90;;;;;;5008306;28;20026;-74
2021/03/19 13:39:58;;;;;;;1.27;1.08;;;11.70;99.90;;;;;;5008642;28;20038;-75
2021/03/19 13:42:24;;;;;;;1.55;0.90;;;11.90;99.90;;;;;;5008154;28;20454;-74
2021/03/19 13:44:50;;;;;;;2.55;1.38;;;11.90;99.90;;;;;;5006552;28;20021;-75
2021/03/19 13:47:16;;;;;;;2.20;1.10;;;11.40;99.90;;;;;;5008442;28;20026;-74